Time;durP1;ratioP1;P1;durP2;ratioP2;P2;SDS_P1;SDS_P2;PMS_P1;PMS_P2;Temp;Humidity;BMP_temperature;BMP_pressure;BME280_temperature;BME280_humidity;BME280_pressure;Samples;Min_cycle;Max_cycle;Signal;HPM_P1;HPM_P2
2022/05/12 00:02:11;;;;;;;10.50;4.25;;;;;;;20.69;43.95;101862.81;143725;590;47006;-68
2022/05/12 00:04:39;;;;;;;8.70;3.90;;;;;;;20.63;44.65;101877.41;143719;652;47008;-68
2022/05/12 00:07:06;;;;;;;7.65;3.72;;;;;;;20.54;43.72;101873.38;143722;569;47004;-70
2022/05/12 00:09:33;;;;;;;5.32;3.40;;;;;;;20.51;43.81;101871.13;143723;597;47006;-68
2022/05/12 00:12:01;;;;;;;4.97;3.30;;;;;;;20.51;44.32;101866.50;143723;588;47002;-69
2022/05/12 00:14:28;;;;;;;9.98;4.10;;;;;;;20.45;45.05;101865.56;143727;792;46022;-70
2022/05/12 00:16:58;;;;;;;6.75;3.78;;;;;;;20.45;45.07;101865.56;143721;605;47004;-69
2022/05/12 00:19:26;;;;;;;7.68;4.30;;;;;;;20.39;45.19;101865.66;143724;579;46006;-68
2022/05/12 00:21:53;;;;;;;10.55;4.78;;;;;;;20.40;45.55;101859.97;143724;926;47002;-68
2022/05/12 00:24:20;;;;;;;8.65;3.75;;;;;;;20.40;45.26;101859.97;143725;850;46029;-71
2022/05/12 00:26:46;;;;;;;5.68;3.75;;;;;;;20.39;45.48;101857.47;143723;580;47002;-69
2022/05/12 00:29:13;;;;;;;7.40;3.97;;;;;;;20.35;45.31;101859.84;143722;800;46007;-68
2022/05/12 00:31:44;;;;;;;7.95;4.07;;;;;;;20.33;45.29;101864.69;143722;986;47004;-68
2022/05/12 00:34:11;;;;;;;8.95;4.07;;;;;;;20.28;45.54;101870.06;143725;585;46926;-69
2022/05/12 00:36:38;;;;;;;7.12;4.10;;;;;;;20.26;45.79;101864.81;143721;888;47004;-68
2022/05/12 00:39:04;;;;;;;7.82;4.50;;;;;;;20.21;46.18;101872.88;143725;593;46006;-68
2022/05/12 00:41:31;;;;;;;4.72;3.85;;;;;;;20.17;45.64;101866.25;143724;593;47004;-70
2022/05/12 00:44:02;;;;;;;6.97;3.83;;;;;;;20.18;45.77;101865.19;143725;664;47008;-68
2022/05/12 00:46:32;;;;;;;6.60;3.80;;;;;;;20.12;46.06;101864.19;143723;567;47002;-69
2022/05/12 00:49:03;;;;;;;6.62;3.33;;;;;;;20.11;45.95;101865.28;143724;566;47006;-68
2022/05/12 00:51:46;;;;;;;4.95;3.87;;;;;;;20.11;46.36;101865.28;143723;568;47005;-69
2022/05/12 00:54:21;;;;;;;5.32;4.30;;;;;;;20.12;46.36;101868.84;143722;575;46010;-70
2022/05/12 00:56:50;;;;;;;8.00;4.20;;;;;;;20.11;46.01;101870.75;143725;576;47004;-70
2022/05/12 00:59:23;;;;;;;7.65;4.37;;;;;;;20.11;46.08;101872.62;143725;569;46006;-68
2022/05/12 01:01:50;;;;;;;5.80;4.28;;;;;;;20.14;45.86;101872.16;143724;973;47002;-68
2022/05/12 01:04:19;;;;;;;14.60;4.32;;;;;;;20.14;45.51;101872.16;143725;589;46008;-68
2022/05/12 01:06:46;;;;;;;6.28;4.10;;;;;;;20.12;45.55;101871.56;143722;938;47004;-70
2022/05/12 01:09:12;;;;;;;7.15;3.75;;;;;;;20.09;45.03;101861.97;143725;593;46006;-69
2022/05/12 01:11:40;;;;;;;4.65;3.45;;;;;;;20.07;45.21;101877.72;143725;577;47004;-69
2022/05/12 01:14:07;;;;;;;6.22;3.67;;;;;;;20.08;45.54;101865.75;143726;972;46024;-70
2022/05/12 01:16:43;;;;;;;7.72;4.20;;;;;;;20.10;45.30;101866.34;143723;590;47002;-69
2022/05/12 01:19:16;;;;;;;6.75;3.47;;;;;;;20.03;45.27;101868.34;143725;579;46006;-69
2022/05/12 01:21:44;;;;;;;10.05;3.50;;;;;;;19.96;45.19;101868.47;143724;967;47002;-69
2022/05/12 01:24:11;;;;;;;7.25;3.35;;;;;;;19.94;45.52;101875.22;143725;583;46029;-68
2022/05/12 01:26:37;;;;;;;5.05;3.17;;;;;;;19.93;45.40;101870.81;143722;980;47004;-75
2022/05/12 01:29:04;;;;;;;6.95;4.03;;;;;;;19.89;44.83;101875.06;143725;572;47006;-76
2022/05/12 01:31:32;;;;;;;5.28;2.85;;;;;;;19.83;44.96;101877.63;143726;886;47004;-69
2022/05/12 01:33:58;;;;;;;9.43;3.28;;;;;;;19.78;45.35;101876.66;143725;882;46010;-70
2022/05/12 01:36:24;;;;;;;6.30;3.10;;;;;;;19.78;44.75;101866.59;143722;752;47004;-70
2022/05/12 01:38:51;;;;;;;8.10;3.67;;;;;;;19.83;44.74;101874.91;143724;727;46006;-70
2022/05/12 01:41:18;;;;;;;9.13;3.67;;;;;;;19.75;45.26;101867.06;143725;633;47002;-68
2022/05/12 01:43:44;;;;;;;5.37;3.03;;;;;;;19.72;45.53;101864.81;143725;768;46023;-70
2022/05/12 01:46:11;;;;;;;8.32;3.40;;;;;;;19.72;45.38;101866.69;143720;572;47004;-68
2022/05/12 01:48:38;;;;;;;7.37;4.00;;;;;;;19.73;45.56;101862.91;143724;972;47006;-69
2022/05/12 01:51:05;;;;;;;5.72;3.53;;;;;;;19.72;45.59;101862.06;143723;936;47005;-69
2022/05/12 01:53:32;;;;;;;7.15;3.47;;;;;;;19.72;45.37;101856.63;143723;984;47010;-69
2022/05/12 01:55:59;;;;;;;10.77;4.00;;;;;;;19.75;45.12;101872.53;143721;569;47004;-68
2022/05/12 01:58:26;;;;;;;11.07;3.97;;;;;;;19.63;46.07;101864.31;143724;574;46007;-69
2022/05/12 02:00:52;;;;;;;5.82;3.17;;;;;;;19.66;46.01;101863.00;143724;650;47002;-69
2022/05/12 02:03:19;;;;;;;9.43;4.12;;;;;;;19.64;45.88;101860.50;143724;665;46010;-69
2022/05/12 02:05:46;;;;;;;9.95;4.03;;;;;;;19.65;45.84;101859.44;143723;574;47008;-68
2022/05/12 02:08:14;;;;;;;11.27;4.15;;;;;;;19.66;45.81;101857.53;143723;985;46006;-68
2022/05/12 02:10:45;;;;;;;10.50;4.12;;;;;;;19.64;46.13;101870.56;143724;588;47002;-68
2022/05/12 02:13:12;;;;;;;6.75;4.00;;;;;;;19.62;45.30;101861.78;143724;600;47009;-68
2022/05/12 02:15:39;;;;;;;6.65;3.92;;;;;;;19.60;45.39;101864.75;143721;588;47004;-69
2022/05/12 02:18:06;;;;;;;12.37;4.05;;;;;;;19.60;45.83;101866.63;143723;617;47004;-68
2022/05/12 02:20:33;;;;;;;6.97;3.25;;;;;;;19.47;45.64;101867.69;143724;902;47004;-68
2022/05/12 02:22:59;;;;;;;10.60;4.12;;;;;;;19.43;46.12;101870.00;143725;774;46028;-70
2022/05/12 02:25:26;;;;;;;6.60;3.87;;;;;;;19.38;46.24;101861.72;143724;568;46008;-68
2022/05/12 02:27:55;;;;;;;8.35;4.07;;;;;;;19.37;45.53;101863.59;143726;569;46006;-69
2022/05/12 02:30:31;;;;;;;6.78;4.18;;;;;;;19.41;46.35;101857.69;143722;607;47002;-68
2022/05/12 02:32:58;;;;;;;11.38;4.40;;;;;;;19.38;46.47;101859.81;143722;572;47010;-69
2022/05/12 02:35:25;;;;;;;7.12;4.43;;;;;;;19.42;46.41;101859.34;143724;639;47008;-68
2022/05/12 02:37:52;;;;;;;14.57;4.50;;;;;;;19.38;46.20;101856.25;143725;972;46006;-68
2022/05/12 02:40:21;;;;;;;6.70;3.30;;;;;;;19.42;44.60;101862.06;143727;599;47000;-68
2022/05/12 02:42:48;;;;;;;7.68;3.67;;;;;;;19.39;44.57;101866.91;143725;744;46009;-68
2022/05/12 02:45:15;;;;;;;6.85;3.92;;;;;;;19.39;44.66;101856.03;143722;589;47004;-68
2022/05/12 02:47:42;;;;;;;7.40;3.47;;;;;;;19.42;45.02;101856.63;143722;660;47006;-69
2022/05/12 02:50:10;;;;;;;7.43;3.92;;;;;;;19.36;45.74;101851.03;143724;986;47004;-71
2022/05/12 02:52:37;;;;;;;4.55;3.30;;;;;;;19.33;45.74;101856.13;143724;572;46010;-68
2022/05/12 02:55:04;;;;;;;14.95;4.18;;;;;;;19.30;45.67;101851.97;143726;950;46022;-70
2022/05/12 02:57:30;;;;;;;7.30;3.90;;;;;;;19.32;45.64;101855.28;143725;612;46006;-70
2022/05/12 02:59:56;;;;;;;6.70;3.90;;;;;;;19.30;45.30;101854.69;143724;572;47002;-68
2022/05/12 03:02:23;;;;;;;6.10;4.00;;;;;;;19.29;45.82;101850.31;143724;589;46010;-68
2022/05/12 03:04:49;;;;;;;6.25;3.72;;;;;;;19.33;44.98;101858.84;143723;642;47004;-68
2022/05/12 03:07:15;;;;;;;7.60;3.53;;;;;;;19.29;45.23;101853.03;143723;598;47923;-69
2022/05/12 03:09:42;;;;;;;8.48;4.00;;;;;;;19.32;45.12;101857.16;143724;839;47004;-69
2022/05/12 03:12:09;;;;;;;8.57;3.95;;;;;;;19.33;45.19;101853.38;143724;573;47009;-69
2022/05/12 03:14:35;;;;;;;6.62;4.00;;;;;;;19.31;45.72;101859.06;143723;979;47004;-69
2022/05/12 03:17:02;;;;;;;9.02;4.07;;;;;;;19.27;46.37;101863.31;143726;585;47006;-70
2022/05/12 03:19:29;;;;;;;10.00;4.20;;;;;;;19.23;46.02;101857.50;143727;717;47004;-68
2022/05/12 03:21:56;;;;;;;6.40;5.30;;;;;;;19.27;46.14;101857.03;143724;978;47010;-68
2022/05/12 03:24:22;;;;;;;7.53;5.57;;;;;;;19.27;46.11;101865.19;143722;597;47004;-68
2022/05/12 03:26:48;;;;;;;15.23;5.18;;;;;;;19.26;46.42;101874.41;143727;980;46020;-68
2022/05/12 03:29:16;;;;;;;14.85;5.32;;;;;;;19.20;46.86;101879.75;143724;985;47004;-68
2022/05/12 03:31:43;;;;;;;10.90;4.65;;;;;;;19.19;46.15;101869.06;143724;569;47010;-69
2022/05/12 03:34:09;;;;;;;9.68;4.57;;;;;;;19.18;46.43;101886.47;143722;645;47004;-69
2022/05/12 03:36:36;;;;;;;7.25;4.18;;;;;;;19.14;46.46;101872.47;143726;986;46006;-69
2022/05/12 03:39:07;;;;;;;12.52;4.45;;;;;;;19.15;46.55;101874.13;143725;567;47002;-68
2022/05/12 03:41:33;;;;;;;9.77;4.97;;;;;;;19.09;47.13;101880.47;143726;984;46010;-68
2022/05/12 03:46:44;;;;;;;16.00;5.40;;;;;;;19.10;46.76;101884.87;143724;815;47000;-68
2022/05/12 03:49:11;;;;;;;12.75;4.87;;;;;;;19.08;46.91;101887.00;143724;753;47003;-68
2022/05/12 03:51:37;;;;;;;9.63;4.70;;;;;;;19.12;46.93;101892.84;143725;577;46010;-68
2022/05/12 03:54:04;;;;;;;9.65;5.45;;;;;;;19.15;46.58;101895.94;143723;973;47004;-70
2022/05/12 03:56:32;;;;;;;12.30;4.62;;;;;;;19.21;46.05;101903.19;143724;672;47006;-70
2022/05/12 03:58:58;;;;;;;13.35;5.28;;;;;;;19.17;46.74;101904.69;143729;582;46006;-68
2022/05/12 04:01:25;;;;;;;9.55;4.60;;;;;;;19.15;46.59;101903.28;143723;634;47008;-68
2022/05/12 04:03:52;;;;;;;7.90;4.70;;;;;;;19.15;47.00;101904.09;143724;968;47004;-68
2022/05/12 04:06:18;;;;;;;11.20;4.35;;;;;;;19.17;47.01;101903.84;143727;598;46019;-68
2022/05/12 04:08:45;;;;;;;10.13;5.22;;;;;;;19.17;47.22;101906.56;143726;596;47004;-70
2022/05/12 04:11:12;;;;;;;9.25;5.35;;;;;;;19.17;47.09;101909.31;143725;896;46010;-68
2022/05/12 04:13:39;;;;;;;13.62;5.12;;;;;;;19.22;46.48;101910.31;143724;826;47002;-69
2022/05/12 04:16:05;;;;;;;9.95;4.70;;;;;;;19.24;46.85;101918.25;143726;969;47006;-68
2022/05/12 04:18:31;;;;;;;12.32;5.50;;;;;;;19.21;47.43;101919.53;143725;598;47004;-69
2022/05/12 04:20:58;;;;;;;14.38;5.07;;;;;;;19.24;47.55;101918.25;143726;607;46010;-69
2022/05/12 04:23:24;;;;;;;19.10;6.25;;;;;;;19.28;47.10;101927.63;143721;597;47004;-68
2022/05/12 04:25:51;;;;;;;22.65;5.25;;;;;;;19.37;46.97;101914.53;143728;872;46006;-69
2022/05/12 04:28:17;;;;;;;14.50;6.07;;;;;;;19.41;46.99;101923.06;143724;569;47004;-69
2022/05/12 04:30:44;;;;;;;11.75;5.30;;;;;;;19.43;47.11;101929.13;143724;656;47010;-70
2022/05/12 04:35:55;;;;;;;21.92;5.65;;;;;;;19.51;47.50;101921.47;143722;590;47000;-69
2022/05/12 04:38:21;;;;;;;16.98;5.55;;;;;;;19.52;47.35;101928.59;143725;572;47002;-69
2022/05/12 04:40:51;;;;;;;15.25;5.65;;;;;;;19.53;46.69;101929.41;143725;822;47010;-69
2022/05/12 04:43:18;;;;;;;15.13;5.80;;;;;;;19.54;45.95;101928.34;143722;627;47004;-69
2022/05/12 04:45:44;;;;;;;11.55;4.68;;;;;;;19.60;45.85;101919.25;143726;595;46006;-68
2022/05/12 04:48:10;;;;;;;9.38;5.18;;;;;;;19.69;46.92;101931.50;143725;652;47002;-69
2022/05/12 04:50:41;;;;;;;12.52;5.32;;;;;;;19.74;46.59;101930.81;143724;591;47011;-69
2022/05/12 04:53:11;;;;;;;15.88;5.35;;;;;;;19.82;46.74;101935.13;143725;600;47004;-70
2022/05/12 04:55:38;;;;;;;10.27;5.32;;;;;;;19.87;46.23;101938.00;143725;986;46007;-69
2022/05/12 04:58:05;;;;;;;9.45;4.87;;;;;;;20.01;45.40;101937.84;143726;721;47002;-70
2022/05/12 05:00:35;;;;;;;9.15;5.15;;;;;;;20.10;45.81;101940.00;143723;684;46010;-70
2022/05/12 05:03:02;;;;;;;9.30;4.80;;;;;;;20.15;46.08;101933.84;143722;969;47004;-68
2022/05/12 05:05:29;;;;;;;16.05;5.60;;;;;;;20.21;45.07;101929.34;143728;985;46006;-69
2022/05/12 05:07:56;;;;;;;10.63;6.03;;;;;;;20.29;45.35;101942.66;143727;593;46026;-68
2022/05/12 05:10:22;;;;;;;13.45;6.18;;;;;;;20.39;43.75;101942.06;143724;984;47010;-68
2022/05/12 05:12:49;;;;;;;15.13;7.05;;;;;;;20.42;43.39;101936.13;143726;643;47002;-68
2022/05/12 05:15:16;;;;;;;20.48;7.07;;;;;;;20.47;43.55;101939.00;143728;591;46006;-69
2022/05/12 05:17:44;;;;;;;20.52;7.95;;;;;;;20.48;43.27;101942.53;143725;896;47002;-69
2022/05/12 05:20:16;;;;;;;17.35;7.15;;;;;;;20.44;42.84;101936.72;143725;574;46011;-69
2022/05/12 05:22:43;;;;;;;15.55;8.10;;;;;;;20.44;43.08;101943.03;143726;980;46004;-69
2022/05/12 05:25:10;;;;;;;14.85;7.10;;;;;;;20.49;43.14;101936.00;143726;985;46006;-69
2022/05/12 05:27:37;;;;;;;18.23;7.47;;;;;;;20.55;42.93;101941.38;143727;603;47004;-69
2022/05/12 05:30:06;;;;;;;14.57;7.20;;;;;;;20.65;42.83;101939.97;143725;791;47010;-69
2022/05/12 05:32:32;;;;;;;15.70;8.23;;;;;;;20.71;42.58;101947.22;143723;599;47004;-70
2022/05/12 05:34:59;;;;;;;15.77;9.45;;;;;;;20.71;42.57;101953.50;143728;942;46006;-70
2022/05/12 05:37:25;;;;;;;20.90;11.45;;;;;;;20.73;42.42;101942.34;143727;576;47004;-69
2022/05/12 05:39:52;;;;;;;27.77;11.63;;;;;;;20.85;42.19;101943.19;143726;858;47008;-69
2022/05/12 05:42:20;;;;;;;23.33;9.68;;;;;;;20.82;42.33;101945.59;143725;979;47004;-69
2022/05/12 05:44:47;;;;;;;15.93;9.57;;;;;;;20.89;42.13;101941.66;143726;986;46006;-69
2022/05/12 05:47:14;;;;;;;15.18;9.20;;;;;;;21.01;41.84;101946.28;143727;581;47002;-69
2022/05/12 05:49:41;;;;;;;18.58;7.93;;;;;;;21.09;42.20;101947.81;143725;983;46011;-71
2022/05/12 05:54:52;;;;;;;20.48;8.77;;;;;;;21.22;41.82;101944.81;143722;581;47006;-69
2022/05/12 05:57:30;;;;;;;16.45;9.35;;;;;;;21.27;41.27;101944.94;143726;572;47005;-69
2022/05/12 05:59:58;;;;;;;18.73;9.38;;;;;;;21.34;40.42;101947.53;143724;681;47010;-70
2022/05/12 06:02:25;;;;;;;26.85;20.37;;;;;;;21.41;40.51;101958.31;143724;586;47004;-69
2022/05/12 06:04:51;;;;;;;16.15;10.18;;;;;;;21.49;40.54;101966.16;143727;573;46006;-69
2022/05/12 06:07:18;;;;;;;22.02;10.48;;;;;;;21.53;40.12;101959.13;143726;972;47002;-68
2022/05/12 06:09:44;;;;;;;21.23;10.35;;;;;;;21.54;39.75;101960.78;143726;972;46027;-68
2022/05/12 06:12:11;;;;;;;17.30;8.63;;;;;;;21.63;38.98;101958.53;143721;579;49008;-69
2022/05/12 06:14:38;;;;;;;29.17;22.75;;;;;;;21.66;38.47;101968.97;143727;985;46006;-68
2022/05/12 06:17:06;;;;;;;21.02;9.48;;;;;;;21.70;38.12;101961.12;143726;588;47004;-69
2022/05/12 06:19:33;;;;;;;11.23;5.25;;;;;;;21.69;36.97;101973.16;143728;685;46009;-68
2022/05/12 06:22:00;;;;;;;17.42;8.07;;;;;;;21.73;37.67;101980.62;143727;572;46008;-69
2022/05/12 06:24:26;;;;;;;14.98;5.90;;;;;;;21.81;36.54;101977.47;143729;785;46006;-68
2022/05/12 06:26:52;;;;;;;10.90;5.82;;;;;;;21.82;36.78;101975.59;143725;983;47006;-69
2022/05/12 06:29:20;;;;;;;14.80;7.57;;;;;;;21.92;37.80;101977.69;143726;984;47010;-69
2022/05/12 06:31:47;;;;;;;26.12;10.90;;;;;;;21.98;38.00;101976.69;143725;592;47004;-67
2022/05/12 06:34:14;;;;;;;21.98;9.70;;;;;;;21.93;38.93;101980.16;143726;883;46007;-69
2022/05/12 06:36:41;;;;;;;25.35;9.25;;;;;;;21.94;39.47;101983.75;143727;972;47004;-70
2022/05/12 06:39:08;;;;;;;15.35;8.50;;;;;;;22.03;39.43;101979.53;143725;576;46025;-69
2022/05/12 06:41:34;;;;;;;18.00;9.43;;;;;;;21.90;39.56;101980.66;143724;586;47002;-71
2022/05/12 06:44:01;;;;;;;15.82;9.95;;;;;;;21.89;39.95;101986.37;143727;833;46006;-68
2022/05/12 06:46:27;;;;;;;14.90;9.77;;;;;;;21.92;40.01;101983.16;143729;672;46006;-69
2022/05/12 06:48:54;;;;;;;21.20;9.15;;;;;;;22.00;39.86;101981.94;143727;577;46009;-68
2022/05/12 06:51:20;;;;;;;18.58;7.97;;;;;;;22.00;39.92;101984.66;143724;663;47004;-72
2022/05/12 06:53:47;;;;;;;20.45;8.60;;;;;;;22.13;39.56;101989.03;143725;567;47000;-69
2022/05/12 06:56:14;;;;;;;20.98;8.27;;;;;;;22.20;39.88;101989.69;143725;593;47005;-71
2022/05/12 06:58:40;;;;;;;15.38;8.23;;;;;;;22.22;41.06;101998.47;143726;581;46019;-68
2022/05/12 07:01:09;;;;;;;17.20;8.13;;;;;;;22.30;42.74;102003.56;143724;634;47004;-69
2022/05/12 07:03:35;;;;;;;15.35;6.80;;;;;;;22.28;44.75;102005.72;143724;578;46007;-69
2022/05/12 07:06:02;;;;;;;16.42;7.45;;;;;;;22.13;46.11;102002.69;143726;744;47004;-69
2022/05/12 07:08:29;;;;;;;11.60;5.97;;;;;;;22.07;46.91;102005.34;143725;691;47008;-69
2022/05/12 07:10:55;;;;;;;11.63;6.37;;;;;;;22.12;47.81;102001.84;143725;583;47004;-69
2022/05/12 07:13:24;;;;;;;11.07;6.80;;;;;;;22.22;47.48;101998.47;143726;572;46006;-69
2022/05/12 07:15:51;;;;;;;12.37;6.15;;;;;;;22.36;47.16;102002.56;143725;853;47004;-68
2022/05/12 07:18:19;;;;;;;10.02;5.43;;;;;;;22.41;46.53;102004.59;143725;589;48926;-69
2022/05/12 07:28:59;;;;;;;12.20;6.35;;;;;;;22.72;46.39;102002.38;143725;584;46010;-68
2022/05/12 07:31:26;;;;;;;13.15;5.60;;;;;;;22.87;42.67;101999.87;143722;605;47006;-68
2022/05/12 07:33:52;;;;;;;7.45;5.53;;;;;;;22.96;42.92;101994.81;143728;570;46009;-68
2022/05/12 07:36:28;;;;;;;10.88;5.40;;;;;;;23.09;45.20;102010.06;143727;654;47004;-70
2022/05/12 07:38:55;;;;;;;8.38;5.15;;;;;;;23.17;45.40;102000.59;143726;826;47012;-68
2022/05/12 07:41:22;;;;;;;10.10;5.62;;;;;;;23.17;44.76;102009.63;143727;586;47010;-67
2022/05/12 07:43:51;;;;;;;7.55;4.97;;;;;;;23.12;44.53;102003.25;143727;589;46008;-69
2022/05/12 07:46:21;;;;;;;10.32;5.45;;;;;;;23.11;43.07;102009.81;143725;708;47005;-68
2022/05/12 07:48:49;;;;;;;10.93;5.72;;;;;;;23.00;43.06;102012.41;143724;594;47013;-68
2022/05/12 07:51:17;;;;;;;9.05;5.47;;;;;;;22.98;44.47;102008.22;143725;630;47004;-67
2022/05/12 07:53:47;;;;;;;13.32;6.93;;;;;;;23.05;43.43;102013.53;143726;585;46008;-69
2022/05/12 07:56:16;;;;;;;8.63;6.22;;;;;;;23.10;41.87;102010.88;143724;576;47004;-69
2022/05/12 07:58:43;;;;;;;11.52;6.00;;;;;;;23.18;42.02;102015.94;143727;595;47010;-67
2022/05/12 08:01:10;;;;;;;10.68;6.03;;;;;;;23.24;39.06;102014.13;143725;594;47006;-70
2022/05/12 08:03:37;;;;;;;9.23;6.03;;;;;;;23.24;36.48;102019.63;143728;642;46008;-67
2022/05/12 08:06:03;;;;;;;10.57;5.15;;;;;;;23.15;36.96;102011.78;143728;756;46010;-68
2022/05/12 08:08:30;;;;;;;21.70;13.35;;;;;;;23.21;37.43;102012.69;143725;592;46010;-68
2022/05/12 08:10:57;;;;;;;10.13;5.62;;;;;;;23.36;38.73;102005.81;143725;588;47006;-67
2022/05/12 08:13:23;;;;;;;9.00;4.75;;;;;;;23.45;37.01;102007.00;143725;570;46008;-68
2022/05/12 08:15:51;;;;;;;8.75;4.45;;;;;;;23.41;37.34;102000.38;143726;743;47006;-67
2022/05/12 08:18:19;;;;;;;5.15;3.78;;;;;;;23.43;36.13;102006.44;143727;572;46010;-67
2022/05/12 08:20:46;;;;;;;6.40;3.67;;;;;;;23.49;36.15;102010.06;143724;585;47006;-67
2022/05/12 08:23:12;;;;;;;7.12;4.87;;;;;;;23.60;37.13;102006.37;143724;704;47002;-67
2022/05/12 08:25:39;;;;;;;8.95;5.85;;;;;;;23.73;36.46;102007.91;143727;591;47004;-67
2022/05/12 08:28:06;;;;;;;7.97;3.90;;;;;;;23.78;35.19;102010.69;143728;584;46017;-67
2022/05/12 08:30:33;;;;;;;8.90;5.40;;;;;;;23.82;35.92;102011.84;143724;572;47006;-68
2022/05/12 08:33:00;;;;;;;9.52;8.25;;;;;;;23.91;35.79;102013.06;143725;573;46009;-67
2022/05/12 08:35:27;;;;;;;12.30;11.10;;;;;;;23.98;35.82;102015.63;143725;578;47006;-67
2022/05/12 08:37:54;;;;;;;6.95;4.62;;;;;;;24.03;35.64;102006.63;143728;603;46012;-67
2022/05/12 08:40:44;;;;;;;16.50;11.75;;;;;;;24.05;34.94;102005.25;143725;567;47004;-68
2022/05/12 08:43:56;;;;;;;14.10;8.52;;;;;;;24.13;37.30;102001.22;143726;582;46008;-67
2022/05/12 08:46:29;;;;;;;10.27;9.07;;;;;;;24.21;36.94;102009.00;143730;579;46010;-67
2022/05/12 08:49:10;;;;;;;7.68;4.55;;;;;;;24.25;36.59;102017.53;143728;580;46011;-66
2022/05/12 08:51:37;;;;;;;11.52;6.68;;;;;;;24.16;36.75;102005.38;143725;574;47006;-67
2022/05/12 08:54:12;;;;;;;10.23;5.82;;;;;;;24.22;36.99;102004.31;143725;567;46009;-68
2022/05/12 08:56:40;;;;;;;8.18;5.00;;;;;;;24.17;37.24;102002.38;143723;572;47006;-68
2022/05/12 08:59:06;;;;;;;6.50;4.78;;;;;;;24.23;37.71;102008.72;143725;592;47008;-69
2022/05/12 09:02:08;;;;;;;9.20;4.95;;;;;;;24.29;36.81;102013.19;143723;640;47006;-68
2022/05/12 09:05:00;;;;;;;6.93;4.10;;;;;;;24.36;36.41;102012.97;143728;567;46022;-69
2022/05/12 09:07:35;;;;;;;8.55;4.32;;;;;;;24.29;35.83;102012.34;143726;658;47004;-69
2022/05/12 09:10:36;;;;;;;5.75;4.47;;;;;;;24.43;36.33;102005.38;143725;593;47011;-71
2022/05/12 09:13:21;;;;;;;11.25;4.60;;;;;;;24.64;36.35;102011.84;143727;683;46010;-77
2022/05/12 09:16:17;;;;;;;7.25;4.47;;;;;;;24.81;34.55;102006.22;143724;588;47006;-72
2022/05/12 09:18:43;;;;;;;7.68;4.37;;;;;;;24.89;34.56;102009.59;143729;586;47004;-72
2022/05/12 09:21:25;;;;;;;6.95;4.50;;;;;;;25.04;32.82;102004.19;143727;572;46012;-73
2022/05/12 09:23:51;;;;;;;7.40;4.57;;;;;;;25.17;32.38;102002.87;143727;608;46011;-73
2022/05/12 09:26:45;;;;;;;7.47;4.45;;;;;;;25.27;32.58;102004.88;143727;580;46008;-73
2022/05/12 09:29:46;;;;;;;7.85;4.95;;;;;;;25.34;31.62;102010.13;143726;572;47006;-75
2022/05/12 09:32:26;;;;;;;7.40;4.35;;;;;;;25.46;31.12;101996.19;143727;569;46027;-76
2022/05/12 09:35:21;;;;;;;8.52;4.32;;;;;;;25.47;29.77;101995.09;143723;593;47006;-73
2022/05/12 09:37:48;;;;;;;;;;;;;;;25.57;29.35;101987.72;143728;985;46926;-74
2022/05/12 09:40:35;;;;;;;10.38;4.25;;;;;;;25.67;28.87;101981.41;143731;591;47002;-74
2022/05/12 09:43:31;;;;;;;7.65;3.92;;;;;;;25.70;28.38;101971.78;143728;586;46008;-74
2022/05/12 09:46:24;;;;;;;8.00;4.57;;;;;;;25.85;29.38;101979.25;143724;575;47004;-74
2022/05/12 09:48:51;;;;;;;5.45;3.58;;;;;;;25.86;28.27;101973.47;143726;619;46006;-74
2022/05/12 09:51:35;;;;;;;5.50;4.15;;;;;;;26.02;28.91;101970.75;143725;574;47004;-74
2022/05/12 09:54:33;;;;;;;7.12;4.43;;;;;;;26.10;28.92;101972.13;143724;575;46021;-74
2022/05/12 09:57:15;;;;;;;6.00;3.83;;;;;;;26.11;29.71;101960.91;143726;567;46004;-73
2022/05/12 09:59:56;;;;;;;6.62;3.80;;;;;;;26.14;30.04;101962.25;143725;566;46006;-73
2022/05/12 10:08:29;;;;;;;9.60;4.28;;;;;;;26.28;29.72;101970.81;143717;654;48926;-71
2022/05/12 10:11:01;;;;;;;9.75;3.87;;;;;;;26.20;28.03;101963.94;143725;626;46006;-71
2022/05/12 10:13:57;;;;;;;7.40;4.18;;;;;;;26.14;28.57;101973.28;143725;640;47004;-71
2022/05/12 10:16:46;;;;;;;7.60;4.20;;;;;;;26.11;27.89;101965.53;143724;586;46010;-71
2022/05/12 10:19:22;;;;;;;7.30;4.20;;;;;;;26.16;28.92;101957.31;143722;587;47004;-71
2022/05/12 10:22:16;;;;;;;8.45;4.10;;;;;;;26.31;26.69;101951.81;143724;586;46926;-72
2022/05/12 10:25:24;;;;;;;9.32;4.15;;;;;;;26.33;28.37;101959.78;143723;652;47002;-72
2022/05/12 10:28:41;;;;;;;10.07;4.07;;;;;;;26.23;27.32;101943.28;143724;746;46010;-71
2022/05/12 10:31:36;;;;;;;7.57;4.32;;;;;;;26.35;28.71;101945.75;143724;580;46009;-70
2022/05/12 10:34:42;;;;;;;7.87;3.97;;;;;;;26.37;28.28;101951.81;143722;727;47006;-73
2022/05/12 10:38:03;;;;;;;8.98;4.00;;;;;;;26.18;26.95;101952.37;143725;573;47004;-74
2022/05/12 10:40:53;;;;;;;6.47;4.07;;;;;;;26.21;26.02;101940.78;143724;580;47010;-72
2022/05/12 10:44:13;;;;;;;7.30;3.42;;;;;;;26.33;25.33;101944.09;143717;609;48928;-72
2022/05/12 10:47:10;;;;;;;4.10;3.22;;;;;;;26.40;25.11;101949.31;143725;574;46007;-70
2022/05/12 10:50:07;;;;;;;4.12;3.35;;;;;;;26.56;25.76;101935.53;143727;568;46010;-69
2022/05/12 10:53:19;;;;;;;3.80;3.40;;;;;;;26.64;24.34;101943.25;143723;573;47010;-72
2022/05/12 10:56:20;;;;;;;7.03;3.70;;;;;;;26.74;24.37;101929.44;143723;606;47002;-69
2022/05/12 10:59:28;;;;;;;7.03;3.47;;;;;;;26.89;25.00;101925.84;143728;734;46006;-70
2022/05/12 11:02:16;;;;;;;6.78;3.50;;;;;;;27.00;23.90;101912.03;143724;568;47004;-69
2022/05/12 11:04:52;;;;;;;3.40;2.85;;;;;;;27.08;22.18;101912.25;143725;670;46008;-70
2022/05/12 11:07:42;;;;;;;6.10;2.92;;;;;;;27.05;23.24;101914.78;143722;618;47004;-69
2022/05/12 11:10:49;;;;;;;4.05;2.60;;;;;;;27.10;22.96;101920.25;143726;624;46006;-69
2022/05/12 11:13:45;;;;;;;4.97;2.70;;;;;;;27.16;22.96;101918.31;143730;624;47002;-70
2022/05/12 11:16:36;;;;;;;5.03;3.03;;;;;;;27.28;23.34;101910.53;143728;596;47011;-69
2022/05/12 11:19:24;;;;;;;4.80;3.28;;;;;;;27.26;22.62;101907.22;143730;638;47002;-69
2022/05/12 11:22:18;;;;;;;3.17;2.80;;;;;;;27.17;22.16;101903.41;143732;573;46007;-69
2022/05/12 11:25:17;;;;;;;5.95;3.53;;;;;;;27.20;22.71;101900.06;143734;590;46010;-69
2022/05/12 11:32:06;;;;;;;5.62;3.45;;;;;;;27.32;22.15;101883.19;143730;602;47005;-69
2022/05/12 11:34:35;;;;;;;7.43;2.80;;;;;;;27.42;23.30;101877.63;143728;635;47006;-69
2022/05/12 11:37:43;;;;;;;6.32;2.80;;;;;;;27.54;22.51;101878.13;143732;567;47002;-70
2022/05/12 11:40:12;;;;;;;3.40;2.92;;;;;;;27.42;21.67;101885.91;143729;652;47010;-70
2022/05/12 11:45:44;;;;;;;7.27;3.30;;;;;;;27.31;22.71;101876.03;143731;567;46006;-71
2022/05/12 11:48:35;;;;;;;3.67;2.87;;;;;;;27.24;22.52;101865.31;143731;632;47002;-69
2022/05/12 11:51:43;;;;;;;5.47;2.78;;;;;;;27.29;23.05;101868.06;143730;639;46008;-70
2022/05/12 11:54:38;;;;;;;8.05;2.72;;;;;;;27.38;22.49;101871.84;143731;567;47002;-69
2022/05/12 11:57:32;;;;;;;6.90;3.00;;;;;;;27.31;21.88;101873.25;143730;597;48006;-71
2022/05/12 12:00:00;;;;;;;7.00;3.17;;;;;;;27.16;21.61;101876.94;143731;595;47002;-70
2022/05/12 12:02:49;;;;;;;3.92;2.78;;;;;;;27.11;22.13;101868.69;143728;593;47010;-70
2022/05/12 12:05:57;;;;;;;4.25;2.85;;;;;;;27.06;22.28;101867.59;143727;575;47004;-70
2022/05/12 12:08:52;;;;;;;3.72;2.60;;;;;;;27.01;22.20;101855.78;143731;636;47006;-70
2022/05/12 12:11:25;;;;;;;6.32;3.03;;;;;;;27.09;22.49;101856.00;143732;599;47004;-69
2022/05/12 12:13:54;;;;;;;4.43;2.92;;;;;;;27.19;22.74;101855.12;143725;574;47010;-71
2022/05/12 12:16:27;;;;;;;4.85;3.55;;;;;;;27.17;23.05;101851.03;143721;668;47003;-68
2022/05/12 12:19:03;;;;;;;5.65;3.20;;;;;;;27.20;22.98;101854.03;143725;574;46006;-68